Airport ID:KJTC
Update Time (UTC):25/01/2022 14:24
Wind Speed (Knots):5
Wind Direction (Magnetic):60
Temperature (°C):-5
Dew Point (°C):-12
Humidity (%):60
Altimeter (inHg):29.96
Density Altitude (Feet):
Visibility:10+
Clouds (Hundreds of feet):CLR
Present Weather:
METAR:METAR KJTC 251420Z AUTO 06004KT 10SM CLR M05/M12 A2996 RMK AO2

The data displayed is for advisory purposes only and is not to be used for flight planning or operations.